Time;durP1;ratioP1;P1;durP2;ratioP2;P2;SDS_P1;SDS_P2;PMS_P1;PMS_P2;Temp;Humidity;BMP_temperature;BMP_pressure;BME280_temperature;BME280_humidity;BME280_pressure;Samples;Min_cycle;Max_cycle;Signal;HPM_P1;HPM_P2
2021/03/18 00:01:34;;;;;;;44.67;20.48;;;;;;;1.39;100.00;98436.69;5090491;28;20072;-75
2021/03/18 00:04:01;;;;;;;38.10;19.40;;;;;;;1.39;100.00;98432.16;5114192;22;20123;-82
2021/03/18 00:06:27;;;;;;;40.88;20.10;;;;;;;1.27;100.00;98434.84;5106070;28;20047;-83
2021/03/18 00:08:55;;;;;;;42.42;20.33;;;;;;;1.34;100.00;98424.06;5115935;28;20245;-83
2021/03/18 00:11:24;;;;;;;39.28;19.08;;;;;;;1.40;100.00;98428.44;5093179;28;20044;-82
2021/03/18 00:13:50;;;;;;;41.08;20.00;;;;;;;1.32;100.00;98430.66;5075819;28;20040;-82
2021/03/18 00:16:17;;;;;;;45.33;19.83;;;;;;;1.31;100.00;98415.69;5074860;28;20055;-83
2021/03/18 00:18:46;;;;;;;45.30;21.08;;;;;;;1.32;100.00;98423.44;5094526;28;20702;-83
2021/03/18 00:21:13;;;;;;;46.88;21.70;;;;;;;1.27;100.00;98428.69;5095153;28;20040;-82
2021/03/18 00:23:40;;;;;;;53.25;22.20;;;;;;;1.39;100.00;98436.69;5097168;28;20103;-82
2021/03/18 00:26:06;;;;;;;60.97;22.27;;;;;;;1.34;100.00;98431.25;5097512;28;20516;-84
2021/03/18 00:28:33;;;;;;;54.55;20.50;;;;;;;1.34;100.00;98423.25;5075985;28;20381;-84
2021/03/18 00:31:00;;;;;;;57.08;23.13;;;;;;;1.29;100.00;98431.13;5094146;28;20051;-83
2021/03/18 00:33:27;;;;;;;55.78;21.05;;;;;;;1.18;100.00;98412.25;5060504;28;20122;-82
2021/03/18 00:35:54;;;;;;;66.05;22.67;;;;;;;1.16;100.00;98419.66;5095531;28;20052;-82
2021/03/18 00:38:21;;;;;;;53.30;22.38;;;;;;;1.24;100.00;98424.63;5061043;28;20051;-82
2021/03/18 00:40:51;;;;;;;44.45;20.33;;;;;;;1.21;100.00;98433.09;5076727;28;20051;-82
2021/03/18 00:43:19;;;;;;;48.13;19.77;;;;;;;1.17;100.00;98423.97;5077567;28;20032;-83
2021/03/18 00:45:47;;;;;;;43.20;19.20;;;;;;;1.13;100.00;98411.34;5095926;28;20051;-81
2021/03/18 00:48:16;;;;;;;44.40;19.25;;;;;;;1.15;100.00;98414.59;5096244;28;20150;-83
2021/03/18 00:50:50;;;;;;;40.80;18.67;;;;;;;1.10;100.00;98425.13;5096398;28;20055;-80
2021/03/18 00:53:22;;;;;;;35.97;17.05;;;;;;;1.15;100.00;98419.91;5078011;28;20535;-82
2021/03/18 00:55:50;;;;;;;35.30;16.20;;;;;;;0.97;100.00;98412.06;5095370;28;20096;-81
2021/03/18 00:58:17;;;;;;;37.20;16.17;;;;;;;0.89;100.00;98407.91;5096118;28;20039;-83
2021/03/18 01:00:58;;;;;;;33.90;16.08;;;;;;;0.95;100.00;98422.16;5078532;28;20051;-81
2021/03/18 01:03:30;;;;;;;33.90;16.02;;;;;;;0.91;100.00;98413.00;5067099;28;20048;-84
2021/03/18 01:06:08;;;;;;;35.15;16.05;;;;;;;0.87;100.00;98423.31;5096954;28;20127;-81
2021/03/18 01:08:36;;;;;;;41.35;17.35;;;;;;;0.83;100.00;98418.66;5096847;28;20036;-83
2021/03/18 01:11:10;;;;;;;37.80;16.13;;;;;;;0.82;100.00;98420.56;5096501;28;20060;-83
2021/03/18 01:13:39;;;;;;;39.00;17.45;;;;;;;0.84;100.00;98414.97;5096454;28;20048;-82
2021/03/18 01:16:22;;;;;;;39.97;17.38;;;;;;;0.87;100.00;98420.66;5077433;28;20044;-82
2021/03/18 01:18:54;;;;;;;54.90;18.80;;;;;;;0.86;100.00;98426.19;5094688;28;20048;-82
2021/03/18 01:21:25;;;;;;;43.35;16.55;;;;;;;0.88;100.00;98424.13;5093713;28;20066;-82
2021/03/18 01:23:51;;;;;;;50.80;20.00;;;;;;;0.84;100.00;98413.13;5094108;28;20101;-83
2021/03/18 01:26:18;;;;;;;64.75;20.20;;;;;;;0.79;100.00;98409.53;5075379;28;20043;-82
2021/03/18 01:28:44;;;;;;;41.47;19.42;;;;;;;0.79;100.00;98413.00;5075580;28;20102;-82
2021/03/18 01:31:11;;;;;;;47.63;20.10;;;;;;;0.86;100.00;98416.34;5076011;28;20450;-83
2021/03/18 01:33:40;;;;;;;48.90;20.65;;;;;;;0.90;100.00;98422.03;5075548;28;20052;-83
2021/03/18 01:36:08;;;;;;;48.08;20.33;;;;;;;0.89;100.00;98409.75;5093888;28;20274;-81
2021/03/18 01:38:35;;;;;;;42.88;19.85;;;;;;;0.93;100.00;98410.94;5092285;28;20561;-82
2021/03/18 01:41:02;;;;;;;41.70;19.17;;;;;;;0.87;100.00;98403.84;5094253;28;20048;-81
2021/03/18 01:43:28;;;;;;;41.60;19.75;;;;;;;0.80;100.00;98406.63;5077086;28;20416;-84
2021/03/18 01:45:56;;;;;;;41.08;19.75;;;;;;;0.80;100.00;98397.84;5094391;28;20099;-82
2021/03/18 01:48:23;;;;;;;45.60;19.42;;;;;;;0.73;100.00;98400.63;5094305;28;20434;-81
2021/03/18 01:50:49;;;;;;;42.35;19.08;;;;;;;0.71;100.00;98386.72;5076141;28;20051;-81
2021/03/18 01:53:18;;;;;;;51.78;21.00;;;;;;;0.75;100.00;98406.50;5096650;28;20047;-83
2021/03/18 01:55:47;;;;;;;54.38;22.30;;;;;;;0.80;100.00;98413.84;5082955;28;20056;-81
2021/03/18 01:58:13;;;;;;;59.75;21.85;;;;;;;0.74;100.00;98404.09;5102368;28;20048;-82
2021/03/18 02:00:42;;;;;;;52.75;21.60;;;;;;;0.79;100.00;98407.69;5081018;28;20048;-83
2021/03/18 02:03:09;;;;;;;85.38;22.65;;;;;;;0.82;100.00;98401.06;5100370;28;20051;-82
2021/03/18 02:05:37;;;;;;;81.53;23.33;;;;;;;0.68;100.00;98381.84;5100078;28;20048;-83
2021/03/18 02:08:04;;;;;;;82.13;23.23;;;;;;;0.76;100.00;98386.81;5098760;28;20048;-82
2021/03/18 02:10:33;;;;;;;111.90;23.30;;;;;;;0.69;100.00;98399.47;5092126;28;20055;-81
2021/03/18 02:13:02;;;;;;;126.15;23.65;;;;;;;0.64;100.00;98391.38;5092130;28;20044;-82
2021/03/18 02:15:33;;;;;;;128.18;24.35;;;;;;;0.59;100.00;98384.03;5079485;28;20040;-83
2021/03/18 02:18:25;;;;;;;60.63;23.33;;;;;;;0.67;100.00;98393.56;5093850;28;20047;-83
2021/03/18 02:21:19;;;;;;;89.78;25.23;;;;;;;0.70;100.00;98382.41;5076545;28;20054;-82
2021/03/18 02:24:09;;;;;;;75.13;23.92;;;;;;;0.77;100.00;98383.13;5097100;28;20492;-83
2021/03/18 02:27:05;;;;;;;97.53;23.25;;;;;;;0.70;100.00;98385.09;5096871;28;20048;-83
2021/03/18 02:30:01;;;;;;;53.75;23.13;;;;;;;0.75;100.00;98381.75;5097732;28;20046;-81
2021/03/18 02:32:30;;;;;;;63.30;24.00;;;;;;;0.80;100.00;98379.97;5083568;28;20511;-83
2021/03/18 02:35:23;;;;;;;58.53;23.38;;;;;;;0.94;100.00;98381.34;5103190;28;20054;-82
2021/03/18 02:38:09;;;;;;;64.93;22.67;;;;;;;0.75;100.00;98382.53;5115506;28;20044;-82
2021/03/18 02:40:41;;;;;;;62.30;22.27;;;;;;;0.74;100.00;98382.78;5081476;28;20048;-84
2021/03/18 02:43:12;;;;;;;56.47;22.95;;;;;;;0.67;100.00;98385.56;5098644;28;20051;-84
2021/03/18 02:45:49;;;;;;;56.67;23.58;;;;;;;0.74;100.00;98391.59;5079844;28;20040;-83
2021/03/18 02:48:25;;;;;;;55.22;23.83;;;;;;;0.56;100.00;98351.75;5098452;28;20040;-82
2021/03/18 02:50:53;;;;;;;54.72;22.20;;;;;;;0.67;100.00;98382.09;5080018;28;20044;-83
2021/03/18 02:53:23;;;;;;;54.50;23.77;;;;;;;0.64;100.00;98380.72;5099006;28;20048;-79
2021/03/18 02:55:50;;;;;;;53.13;23.73;;;;;;;0.60;100.00;98368.88;5081648;28;20197;-83
2021/03/18 02:58:21;;;;;;;55.13;25.58;;;;;;;0.68;100.00;98373.03;5099399;28;20042;-82
2021/03/18 03:00:48;;;;;;;57.65;24.73;;;;;;;0.53;100.00;98368.19;5081012;28;20379;-84
2021/03/18 03:03:24;;;;;;;51.63;23.20;;;;;;;0.51;100.00;98370.28;5100132;28;20629;-84
2021/03/18 03:05:53;;;;;;;48.70;21.45;;;;;;;0.51;100.00;98386.28;5080822;28;20115;-84
2021/03/18 03:08:21;;;;;;;49.33;23.00;;;;;;;0.52;100.00;98371.88;5080392;28;20054;-84
2021/03/18 03:10:52;;;;;;;54.80;23.88;;;;;;;0.43;100.00;98352.00;5080200;28;20500;-85
2021/03/18 03:13:18;;;;;;;51.97;24.17;;;;;;;0.53;100.00;98377.00;5098814;28;20040;-85
2021/03/18 03:15:45;;;;;;;58.92;24.23;;;;;;;0.55;100.00;98369.59;5079667;28;20086;-84
2021/03/18 03:18:13;;;;;;;51.42;23.88;;;;;;;0.55;100.00;98361.59;5107248;28;20039;-84
2021/03/18 03:20:40;;;;;;;48.63;22.30;;;;;;;0.55;100.00;98371.44;5108093;28;20050;-84
2021/03/18 03:23:09;;;;;;;50.10;23.27;;;;;;;0.52;100.00;98377.22;5108203;28;20063;-84
2021/03/18 03:25:50;;;;;;;55.08;25.25;;;;;;;0.52;100.00;98383.38;5107716;28;20051;-82
2021/03/18 03:28:17;;;;;;;53.05;24.45;;;;;;;0.57;100.00;98380.81;5107082;28;20044;-84
2021/03/18 03:30:43;;;;;;;51.22;24.23;;;;;;;0.49;100.00;98369.72;5089158;28;20126;-83
2021/03/18 03:33:10;;;;;;;56.38;24.98;;;;;;;0.53;100.00;98385.00;5102477;28;20043;-83
2021/03/18 03:35:37;;;;;;;47.53;23.83;;;;;;;0.55;100.00;98388.22;5099261;28;20066;-83
2021/03/18 03:38:05;;;;;;;53.63;22.42;;;;;;;0.55;100.00;98388.22;5078085;28;20055;-84
2021/03/18 03:40:33;;;;;;;45.00;22.10;;;;;;;0.51;100.00;98389.75;5079722;28;20448;-84
2021/03/18 03:42:59;;;;;;;55.50;23.38;;;;;;;0.41;100.00;98386.03;5099176;28;20052;-83
2021/03/18 03:45:26;;;;;;;50.65;23.77;;;;;;;0.31;100.00;98372.50;5079117;28;20044;-84
2021/03/18 03:47:53;;;;;;;50.78;23.10;;;;;;;0.40;100.00;98395.88;5079433;28;20090;-84
2021/03/18 03:50:23;;;;;;;63.67;23.42;;;;;;;0.22;100.00;98380.00;5079416;28;20066;-80
2021/03/18 03:53:09;;;;;;;46.67;23.08;;;;;;;0.22;100.00;98397.81;5103344;28;20048;-82
2021/03/18 03:55:42;;;;;;;54.20;23.45;;;;;;;0.22;100.00;98384.50;5109793;28;20051;-81
2021/03/18 03:58:12;;;;;;;51.88;23.65;;;;;;;0.19;100.00;98387.63;5106400;28;20047;-81
2021/03/18 04:00:41;;;;;;;49.17;23.45;;;;;;;-0.01;100.00;98364.81;5108024;28;20032;-79
2021/03/18 04:03:11;;;;;;;54.10;24.65;;;;;;;0.16;100.00;98378.25;5106371;28;20056;-82
2021/03/18 04:05:43;;;;;;;52.47;24.25;;;;;;;0.20;100.00;98368.78;5107050;28;20510;-79
2021/03/18 04:08:14;;;;;;;48.03;22.92;;;;;;;0.24;100.00;98375.25;5107898;28;20055;-81
2021/03/18 04:10:42;;;;;;;52.33;24.48;;;;;;;0.17;100.00;98363.91;5108590;28;20067;-81
2021/03/18 04:13:11;;;;;;;54.05;23.63;;;;;;;0.22;100.00;98365.88;5108104;28;20059;-80
2021/03/18 04:15:39;;;;;;;46.47;24.02;;;;;;;0.23;100.00;98368.31;5088466;28;20170;-81
2021/03/18 04:18:06;;;;;;;51.83;24.58;;;;;;;0.17;100.00;98369.25;5102784;28;20040;-80
2021/03/18 04:20:35;;;;;;;50.13;24.27;;;;;;;0.24;100.00;98358.47;5105465;28;20054;-80
2021/03/18 04:23:04;;;;;;;51.88;26.05;;;;;;;0.32;100.00;98371.44;5103654;28;20048;-80
2021/03/18 04:25:31;;;;;;;50.67;23.30;;;;;;;0.21;100.00;98369.56;5104209;28;20039;-80
2021/03/18 04:28:01;;;;;;;48.42;23.30;;;;;;;0.21;100.00;98367.72;5102065;28;20063;-80
2021/03/18 04:30:30;;;;;;;47.50;22.90;;;;;;;0.31;100.00;98369.84;5085484;28;20044;-78
2021/03/18 04:32:58;;;;;;;50.17;23.48;;;;;;;0.28;100.00;98370.28;5104531;28;20040;-81
2021/03/18 04:35:26;;;;;;;49.00;23.92;;;;;;;0.22;100.00;98381.84;5108273;28;20074;-80
2021/03/18 04:37:54;;;;;;;47.55;23.48;;;;;;;0.19;100.00;98382.31;5111235;28;20040;-80
2021/03/18 04:40:22;;;;;;;53.10;24.95;;;;;;;0.21;100.00;98377.56;5113048;28;20096;-80
2021/03/18 04:42:48;;;;;;;51.08;24.33;;;;;;;0.19;100.00;98384.97;5096279;28;20028;-81
2021/03/18 04:45:20;;;;;;;51.58;23.75;;;;;;;0.10;100.00;98384.50;5095826;28;20036;-81
2021/03/18 04:47:47;;;;;;;51.25;24.05;;;;;;;0.07;100.00;98392.13;5112953;28;20108;-81
2021/03/18 04:50:18;;;;;;;60.30;23.80;;;;;;;-0.08;100.00;98379.28;5095102;28;20150;-81
2021/03/18 04:52:44;;;;;;;54.72;22.77;;;;;;;0.02;100.00;98386.69;5109207;28;20040;-81
2021/03/18 04:55:11;;;;;;;53.78;25.00;;;;;;;-0.03;100.00;98390.03;5113275;28;20095;-81
2021/03/18 04:57:43;;;;;;;56.92;25.33;;;;;;;-0.10;100.00;98390.13;5113244;28;20048;-81
2021/03/18 05:00:10;;;;;;;58.22;25.77;;;;;;;0.00;100.00;98395.69;5096286;28;20048;-79
2021/03/18 05:02:40;;;;;;;61.00;27.48;;;;;;;0.04;100.00;98400.56;5095361;28;20044;-82
2021/03/18 05:05:18;;;;;;;61.58;27.77;;;;;;;0.04;100.00;98389.94;5095075;28;20055;-82
2021/03/18 05:07:46;;;;;;;69.30;29.42;;;;;;;0.06;100.00;98385.19;5112000;28;20078;-81
2021/03/18 05:10:15;;;;;;;70.10;29.00;;;;;;;0.10;100.00;98383.69;5094724;28;20047;-83
2021/03/18 05:12:42;;;;;;;70.82;30.40;;;;;;;0.00;100.00;98377.06;5092513;28;20062;-82
2021/03/18 05:15:08;;;;;;;68.20;30.23;;;;;;;0.07;100.00;98389.47;5111176;28;20079;-81
2021/03/18 05:17:36;;;;;;;78.28;30.73;;;;;;;0.08;100.00;98396.44;5110904;28;20040;-83
2021/03/18 05:20:08;;;;;;;82.65;33.08;;;;;;;0.02;100.00;98381.38;5095365;28;20091;-83
2021/03/18 05:22:34;;;;;;;80.00;33.08;;;;;;;0.05;100.00;98380.91;5114129;28;20082;-86
2021/03/18 05:25:08;;;;;;;104.30;33.35;;;;;;;0.11;100.00;98388.78;5113716;28;20030;-85
2021/03/18 05:27:39;;;;;;;74.45;33.38;;;;;;;0.13;100.00;98383.25;5095635;28;20111;-86
2021/03/18 05:30:08;;;;;;;74.13;31.48;;;;;;;0.05;100.00;98392.38;5111569;28;20039;-80
2021/03/18 05:32:35;;;;;;;95.35;32.28;;;;;;;0.09;100.00;98387.38;5087490;28;20135;-81
2021/03/18 05:35:04;;;;;;;71.15;31.23;;;;;;;0.13;100.00;98389.34;5083888;28;20040;-81
2021/03/18 05:37:30;;;;;;;79.78;32.63;;;;;;;0.16;100.00;98390.75;5081896;28;20047;-81
2021/03/18 05:40:00;;;;;;;69.00;29.73;;;;;;;0.06;100.00;98393.16;5096498;28;20306;-81
2021/03/18 05:42:26;;;;;;;75.95;32.97;;;;;;;0.08;100.00;98386.56;5098343;28;20044;-81
2021/03/18 05:44:52;;;;;;;89.03;34.25;;;;;;;-0.01;100.00;98372.81;5091983;28;20051;-80
2021/03/18 05:47:19;;;;;;;78.80;33.38;;;;;;;0.12;100.00;98386.94;5098972;28;20044;-82
2021/03/18 05:49:45;;;;;;;77.57;32.20;;;;;;;0.16;100.00;98386.25;5098748;28;20059;-81
2021/03/18 05:52:12;;;;;;;91.13;34.30;;;;;;;0.16;100.00;98382.75;5067691;23;20048;-76
2021/03/18 05:54:45;;;;;;;125.30;34.63;;;;;;;0.06;100.00;98385.19;5063064;28;20036;-76
2021/03/18 05:57:14;;;;;;;103.93;31.95;;;;;;;0.03;100.00;98381.13;5080347;28;20109;-75
2021/03/18 05:59:44;;;;;;;153.10;33.25;;;;;;;-0.13;100.00;98371.16;5067663;28;20043;-76
2021/03/18 06:02:10;;;;;;;115.45;35.38;;;;;;;-0.12;100.00;98372.78;5048109;28;20408;-76
2021/03/18 06:04:38;;;;;;;84.43;33.03;;;;;;;-0.02;100.00;98370.34;5066966;22;20055;-79
2021/03/18 06:07:06;;;;;;;78.70;32.70;;;;;;;0.19;100.00;98372.47;5108820;28;20040;-80
2021/03/18 06:09:33;;;;;;;141.55;33.00;;;;;;;0.06;100.00;98379.84;5109857;28;20044;-79
2021/03/18 06:11:59;;;;;;;82.05;32.92;;;;;;;0.06;100.00;98387.84;5092983;28;20048;-78
2021/03/18 06:14:26;;;;;;;85.30;33.97;;;;;;;0.25;100.00;98397.38;5093148;28;20498;-78
2021/03/18 06:16:57;;;;;;;301.35;35.05;;;;;;;0.05;100.00;98379.06;5111920;28;20465;-79
2021/03/18 06:19:24;;;;;;;167.65;33.75;;;;;;;-0.05;100.00;98392.91;5094314;28;20043;-78
2021/03/18 06:21:53;;;;;;;149.02;33.70;;;;;;;-0.07;100.00;98394.19;5116162;28;20051;-79
2021/03/18 06:24:20;;;;;;;81.53;32.50;;;;;;;0.04;100.00;98389.94;5094877;28;20441;-78
2021/03/18 06:26:46;;;;;;;78.90;32.17;;;;;;;0.15;100.00;98407.78;5111772;28;20121;-79
2021/03/18 06:29:38;;;;;;;96.15;33.83;;;;;;;0.23;100.00;98399.47;5109840;28;20050;-79
2021/03/18 06:32:13;;;;;;;76.32;30.10;;;;;;;0.12;100.00;98409.03;5110232;28;20054;-79
2021/03/18 06:34:50;;;;;;;78.50;32.33;;;;;;;0.19;100.00;98403.59;5109773;28;20135;-79
2021/03/18 06:37:34;;;;;;;110.75;37.22;;;;;;;0.17;100.00;98403.84;5111511;28;20047;-78
2021/03/18 06:40:15;;;;;;;75.27;28.47;;;;;;;0.16;100.00;98406.72;5111529;28;20494;-79
2021/03/18 06:42:51;;;;;;;77.22;29.83;;;;;;;0.14;100.00;98393.66;5116020;28;20047;-79
2021/03/18 06:45:18;;;;;;;91.03;34.70;;;;;;;0.14;100.00;98398.16;5116790;28;20138;-79
2021/03/18 06:47:51;;;;;;;71.53;30.02;;;;;;;0.09;100.00;98401.50;5109205;28;20047;-78
2021/03/18 06:50:24;;;;;;;73.43;28.00;;;;;;;0.16;100.00;98396.06;5109439;28;20040;-78
2021/03/18 06:52:50;;;;;;;61.75;28.33;;;;;;;0.26;100.00;98396.34;5109155;28;20055;-78
2021/03/18 06:55:27;;;;;;;56.53;26.27;;;;;;;0.37;100.00;98391.00;5110857;28;20116;-78
2021/03/18 06:58:19;;;;;;;59.10;24.92;;;;;;;0.42;100.00;98383.13;5092618;28;20169;-79
2021/03/18 07:00:51;;;;;;;46.78;21.80;;;;;;;0.43;100.00;98387.44;5110802;28;20433;-77
2021/03/18 07:03:39;;;;;;;44.92;21.60;;;;;;;0.51;100.00;98394.25;5108802;28;20051;-78
2021/03/18 07:06:18;;;;;;;47.70;22.38;;;;;;;0.55;100.00;98382.91;5109429;28;20448;-78
2021/03/18 07:08:44;;;;;;;38.30;20.83;;;;;;;0.69;100.00;98388.00;5109489;28;20039;-77
2021/03/18 07:11:19;;;;;;;46.17;21.52;;;;;;;0.61;100.00;98384.66;5112457;28;20456;-78
2021/03/18 07:13:47;;;;;;;48.63;22.87;;;;;;;0.74;100.00;98386.25;5114068;28;20048;-78
2021/03/18 07:16:14;;;;;;;50.85;22.85;;;;;;;0.57;100.00;98385.31;5114144;28;20617;-78
2021/03/18 07:18:43;;;;;;;50.38;22.98;;;;;;;0.60;100.00;98382.19;5097357;28;20317;-78
2021/03/18 07:21:15;;;;;;;47.95;22.05;;;;;;;0.71;100.00;98389.38;5111798;28;20047;-78
2021/03/18 07:23:43;;;;;;;49.88;23.52;;;;;;;0.58;100.00;98386.97;5113890;28;20431;-78
2021/03/18 07:26:23;;;;;;;51.00;24.23;;;;;;;0.60;100.00;98384.88;5114310;28;20051;-78
2021/03/18 07:29:11;;;;;;;54.05;25.83;;;;;;;0.43;100.00;98386.63;5113274;28;20050;-78
2021/03/18 07:31:37;;;;;;;57.20;25.77;;;;;;;0.56;100.00;98373.06;5123662;28;20036;-78
2021/03/18 07:34:06;;;;;;;66.88;26.80;;;;;;;0.72;100.00;98379.53;5114576;28;20085;-78
2021/03/18 07:36:32;;;;;;;62.10;27.35;;;;;;;0.87;100.00;98366.53;5096026;28;20403;-78
2021/03/18 07:38:59;;;;;;;65.47;28.85;;;;;;;0.85;100.00;98369.41;5113079;28;20027;-77
2021/03/18 07:41:26;;;;;;;76.88;30.38;;;;;;;0.73;100.00;98376.63;5095861;28;20043;-78
2021/03/18 07:43:52;;;;;;;66.47;29.35;;;;;;;0.68;100.00;98371.19;5095271;28;20507;-78
2021/03/18 07:46:20;;;;;;;70.53;29.58;;;;;;;0.65;100.00;98370.88;5112147;28;20040;-78
2021/03/18 07:48:51;;;;;;;67.22;29.08;;;;;;;0.76;100.00;98370.03;5113777;28;20130;-78
2021/03/18 07:51:18;;;;;;;64.20;28.25;;;;;;;0.83;100.00;98371.50;5111866;28;20153;-77
2021/03/18 07:53:49;;;;;;;64.05;28.30;;;;;;;0.98;100.00;98363.06;5095442;28;20055;-79
2021/03/18 07:56:16;;;;;;;61.17;27.63;;;;;;;1.01;100.00;98370.56;5094591;28;20043;-78
2021/03/18 07:58:45;;;;;;;57.30;26.50;;;;;;;0.88;100.00;98365.50;5112054;28;20591;-78
2021/03/18 08:01:30;;;;;;;59.70;27.02;;;;;;;0.78;100.00;98375.91;5113601;28;20727;-77
2021/03/18 08:03:58;;;;;;;54.15;26.02;;;;;;;0.79;100.00;98366.91;5113385;28;20079;-78
2021/03/18 08:06:39;;;;;;;51.38;23.45;;;;;;;0.75;100.00;98373.75;5112237;28;20130;-78
2021/03/18 08:09:12;;;;;;;58.40;26.42;;;;;;;0.74;100.00;98356.94;5111208;28;20051;-78
2021/03/18 08:11:48;;;;;;;58.63;25.77;;;;;;;0.78;100.00;98365.25;5112143;28;20055;-77
2021/03/18 08:14:19;;;;;;;55.88;25.65;;;;;;;0.76;100.00;98368.19;5111873;28;20104;-78
2021/03/18 08:16:46;;;;;;;54.60;25.52;;;;;;;0.53;100.00;98362.88;5123505;28;20042;-79
2021/03/18 08:19:14;;;;;;;63.33;27.27;;;;;;;0.57;100.00;98358.69;5111711;28;20126;-78
2021/03/18 08:21:52;;;;;;;63.67;29.30;;;;;;;0.51;100.00;98360.44;5098761;28;20448;-79
2021/03/18 08:24:20;;;;;;;73.07;33.45;;;;;;;0.58;100.00;98363.81;5126586;28;20036;-78
2021/03/18 08:26:58;;;;;;;70.72;33.15;;;;;;;0.68;100.00;98365.06;5112467;28;20039;-78
2021/03/18 08:29:44;;;;;;;86.38;37.15;;;;;;;0.89;100.00;98356.44;5118610;28;20036;-78
2021/03/18 08:32:26;;;;;;;87.85;37.97;;;;;;;0.95;100.00;98351.00;5122827;28;20073;-78
2021/03/18 08:34:58;;;;;;;87.25;38.60;;;;;;;1.08;100.00;98361.41;5118538;28;20048;-78
2021/03/18 08:37:32;;;;;;;93.35;40.65;;;;;;;1.31;100.00;98360.50;5098117;28;20047;-78
2021/03/18 08:40:02;;;;;;;86.82;39.08;;;;;;;1.26;100.00;98347.88;5112088;28;20044;-79
2021/03/18 08:42:31;;;;;;;84.43;38.30;;;;;;;1.25;100.00;98359.59;5095787;28;20445;-79
2021/03/18 08:45:00;;;;;;;77.93;37.28;;;;;;;1.66;100.00;98353.16;5094893;28;20047;-79
2021/03/18 08:47:43;;;;;;;70.28;33.83;;;;;;;1.98;100.00;98353.44;5113678;28;20035;-79
2021/03/18 08:50:23;;;;;;;74.25;36.22;;;;;;;2.12;100.00;98338.69;5116496;28;20448;-78
2021/03/18 08:52:54;;;;;;;66.00;33.38;;;;;;;2.17;100.00;98332.66;5125304;28;20043;-78
2021/03/18 08:55:40;;;;;;;64.63;32.35;;;;;;;2.01;100.00;98328.94;5097026;28;20063;-78
2021/03/18 08:58:08;;;;;;;71.72;34.55;;;;;;;1.88;100.00;98331.91;5121733;28;20047;-78
2021/03/18 09:00:37;;;;;;;70.07;31.75;;;;;;;2.03;100.00;98336.69;5122362;28;20036;-79
2021/03/18 09:03:05;;;;;;;55.60;27.48;;;;;;;1.90;100.00;98337.81;5124465;28;20044;-78
2021/03/18 09:05:33;;;;;;;57.85;27.73;;;;;;;2.15;100.00;98332.06;5117136;28;20035;-78
2021/03/18 09:08:07;;;;;;;54.17;27.58;;;;;;;2.39;100.00;98334.31;5112726;27;20097;-78
2021/03/18 09:10:36;;;;;;;59.05;27.52;;;;;;;2.51;100.00;98324.34;5113533;28;20060;-78
2021/03/18 09:13:15;;;;;;;46.45;24.70;;;;;;;2.47;100.00;98322.41;5111147;28;20055;-78
2021/03/18 09:15:44;;;;;;;47.13;25.27;;;;;;;2.47;100.00;98319.72;5112384;28;20345;-78
2021/03/18 09:18:21;;;;;;;48.03;24.05;;;;;;;2.17;100.00;98335.31;5110702;28;20047;-78
2021/03/18 09:20:53;;;;;;;44.00;21.80;;;;;;;2.39;100.00;98330.84;5111023;28;20036;-78
2021/03/18 09:23:26;;;;;;;50.13;23.15;;;;;;;2.65;100.00;98321.31;5112193;28;20047;-79
2021/03/18 09:25:55;;;;;;;42.58;21.70;;;;;;;2.93;100.00;98321.94;5112063;28;20086;-78
2021/03/18 09:28:22;;;;;;;39.42;20.90;;;;;;;2.97;100.00;98325.72;5112674;28;20043;-79
2021/03/18 09:30:51;;;;;;;42.63;21.42;;;;;;;3.19;100.00;98319.56;5109916;28;20093;-79
2021/03/18 09:33:25;;;;;;;40.65;22.10;;;;;;;3.54;100.00;98319.94;5109414;28;20063;-79
2021/03/18 09:35:57;;;;;;;33.97;18.25;;;;;;;3.67;100.00;98314.19;5093176;28;20086;-79
2021/03/18 09:38:30;;;;;;;33.28;17.95;;;;;;;4.03;100.00;98324.13;5116763;28;20051;-78
2021/03/18 09:41:02;;;;;;;29.48;16.08;;;;;;;3.36;100.00;98318.41;5102297;28;20118;-78
2021/03/18 09:43:30;;;;;;;33.33;16.27;;;;;;;3.55;100.00;98319.69;5097285;28;20048;-78
2021/03/18 09:46:08;;;;;;;30.35;16.92;;;;;;;3.95;100.00;98321.16;5112898;28;20048;-79
2021/03/18 09:48:38;;;;;;;36.88;17.60;;;;;;;4.30;100.00;98314.19;5115901;28;20433;-79
2021/03/18 09:51:14;;;;;;;30.00;16.48;;;;;;;4.53;100.00;98301.44;5119466;28;20047;-78
2021/03/18 09:53:44;;;;;;;26.67;15.18;;;;;;;4.76;100.00;98293.78;5128661;28;20044;-79
2021/03/18 09:56:13;;;;;;;29.48;16.45;;;;;;;5.18;100.00;98298.25;5101220;28;20119;-80
2021/03/18 09:58:40;;;;;;;30.85;15.90;;;;;;;5.48;100.00;98303.69;5118271;28;20047;-80
2021/03/18 10:01:14;;;;;;;29.83;16.65;;;;;;;5.03;100.00;98288.28;5115847;28;20112;-79
2021/03/18 10:03:59;;;;;;;29.47;15.73;;;;;;;5.65;100.00;98285.47;5113813;28;20063;-79
2021/03/18 10:06:29;;;;;;;27.10;15.00;;;;;;;5.76;100.00;98292.44;5112702;28;20571;-79
2021/03/18 10:09:26;;;;;;;28.30;15.77;;;;;;;5.31;100.00;98282.47;5113088;28;20156;-79
2021/03/18 10:11:55;;;;;;;28.10;15.55;;;;;;;5.35;100.00;98280.03;5112856;28;20036;-79
2021/03/18 10:14:24;;;;;;;26.65;15.07;;;;;;;5.09;100.00;98272.97;5094516;28;20246;-80
2021/03/18 10:17:07;;;;;;;30.55;17.55;;;;;;;5.22;100.00;98267.13;5112252;28;20094;-79
2021/03/18 10:19:39;;;;;;;32.95;18.17;;;;;;;5.56;100.00;98276.31;5092834;28;20040;-79
2021/03/18 10:22:10;;;;;;;31.23;17.13;;;;;;;5.07;100.00;98269.75;5110517;28;20180;-78
2021/03/18 10:24:37;;;;;;;35.60;18.85;;;;;;;4.52;100.00;98275.72;5095790;28;20043;-78
2021/03/18 10:27:15;;;;;;;38.17;19.63;;;;;;;4.13;100.00;98267.94;5113671;28;20100;-79
2021/03/18 10:29:42;;;;;;;34.10;17.85;;;;;;;4.00;100.00;98260.34;5096178;28;20107;-78
2021/03/18 10:32:10;;;;;;;34.05;16.95;;;;;;;3.98;100.00;98269.72;5114240;28;20487;-78
2021/03/18 10:34:40;;;;;;;40.17;19.65;;;;;;;4.03;100.00;98269.75;5096278;28;20100;-78
2021/03/18 10:37:25;;;;;;;36.83;18.98;;;;;;;4.50;100.00;98259.88;5096205;28;20040;-78
2021/03/18 10:40:15;;;;;;;35.58;19.13;;;;;;;6.23;100.00;98252.69;5113136;28;20109;-78
2021/03/18 10:42:43;;;;;;;33.17;18.02;;;;;;;7.96;100.00;98256.13;5115533;28;20048;-81
2021/03/18 10:45:18;;;;;;;28.75;16.50;;;;;;;9.12;100.00;98246.81;5118838;28;20149;-79
2021/03/18 10:47:45;;;;;;;25.13;15.65;;;;;;;8.37;100.00;98257.41;5116178;28;20043;-80
2021/03/18 10:50:15;;;;;;;25.67;15.77;;;;;;;8.87;100.00;98239.84;5099560;28;20359;-80
2021/03/18 10:52:51;;;;;;;29.48;16.75;;;;;;;8.35;100.00;98245.28;5114184;28;20067;-79
2021/03/18 10:55:26;;;;;;;24.40;13.73;;;;;;;8.97;100.00;98238.91;5097703;28;20054;-80
2021/03/18 10:58:00;;;;;;;21.38;12.02;;;;;;;9.27;96.05;98233.09;5116275;28;20047;-80
2021/03/18 11:00:28;;;;;;;22.83;13.75;;;;;;;8.28;96.04;98232.16;5114867;28;20046;-80
2021/03/18 11:03:00;;;;;;;17.80;11.98;;;;;;;7.31;100.00;98228.59;5115559;28;20055;-80
2021/03/18 11:05:31;;;;;;;17.92;11.48;;;;;;;7.13;100.00;98228.41;5113297;28;20074;-80
2021/03/18 11:07:57;;;;;;;21.20;11.43;;;;;;;7.02;100.00;98227.66;5112615;28;20048;-80
2021/03/18 11:10:30;;;;;;;20.70;11.98;;;;;;;7.15;100.00;98228.97;5113315;28;20039;-80
2021/03/18 11:13:00;;;;;;;22.08;13.15;;;;;;;6.90;100.00;98225.31;5112379;28;20059;-79
2021/03/18 11:15:41;;;;;;;16.58;11.02;;;;;;;6.71;100.00;98226.22;5095368;28;20047;-79
2021/03/18 11:18:08;;;;;;;17.10;10.68;;;;;;;6.91;100.00;98215.38;5111997;28;20414;-79
2021/03/18 11:20:37;;;;;;;20.02;11.52;;;;;;;6.61;100.00;98210.91;5114175;28;20435;-79
2021/03/18 11:23:04;;;;;;;19.50;11.90;;;;;;;6.35;100.00;98213.97;5119570;28;20048;-81
2021/03/18 11:25:31;;;;;;;18.05;11.15;;;;;;;6.35;100.00;98208.59;5114040;28;20048;-80
2021/03/18 11:27:57;;;;;;;23.75;12.32;;;;;;;6.56;100.00;98194.78;5112949;28;20146;-79
2021/03/18 11:30:27;;;;;;;20.25;12.57;;;;;;;6.24;100.00;98195.19;5112257;28;20039;-79
2021/03/18 11:33:17;;;;;;;21.15;12.30;;;;;;;6.39;100.00;98183.56;5111978;28;20486;-79
2021/03/18 11:35:49;;;;;;;20.85;12.00;;;;;;;6.46;100.00;98189.44;5112097;28;20043;-79